Pronóstico
Mapa Interactivo
Aviación
Climatología
Hidrometeorología
Agrometeorología
Estaciones Automáticas
Transparencia
OMM WMO
Portada
Institución
Noticias
Imágenes
Tsunami
Historial
Boletines y Alertas
Contactos
Buscar Contenidos
Informe del Tiempo

SADR31 MDSD 241100Z
METAR

METAR MDPP 241100Z 00000KT 9999 FEW017 23/23 Q1013=
METAR MDST 241100Z 00000KT 9999 SCT016 BKN300 21/21 Q1014=
METAR MDPC 241100Z 07005KT 9999 FEW018 26/23 Q1014=
METAR MDBH 241100Z 22005KT 9999 FEW016CB FEW016 22/21 Q1014 CB/SE=
METAR MDSD 241100Z 36004KT 9999 FEW016CB FEW018 23/22 Q1013 CB/SW=
METAR MDLR 241100Z 00000KT 9999 FEW018 21/21 Q1014 NOSIG=
METAR MDCY 241100Z 00000KT 9999 FEW016 23/23 Q1013=